createdAt,value
2019-02-09T00:00:11.200Z,7.63
2019-02-09T00:01:11.182Z,7.61
2019-02-09T00:02:11.204Z,7.63
2019-02-09T00:03:11.174Z,7.63
2019-02-09T00:04:11.160Z,7.67
2019-02-09T00:05:11.140Z,7.64
2019-02-09T00:06:11.126Z,7.60
2019-02-09T00:07:11.125Z,7.64
2019-02-09T00:08:11.124Z,7.67
2019-02-09T00:09:11.117Z,7.64
2019-02-09T00:10:11.094Z,7.64
2019-02-09T00:11:11.106Z,7.63
2019-02-09T00:12:11.066Z,7.63
2019-02-09T00:13:11.104Z,7.71
2019-02-09T00:14:11.041Z,7.67
2019-02-09T00:15:11.044Z,7.68
2019-02-09T00:16:11.028Z,7.67
2019-02-09T00:17:11.011Z,7.64
2019-02-09T00:18:11.002Z,7.71
2019-02-09T00:19:11.847Z,7.63
2019-02-09T00:20:10.977Z,7.64
2019-02-09T00:21:10.969Z,7.68
2019-02-09T00:22:10.951Z,7.64
2019-02-09T00:23:10.942Z,7.64
2019-02-09T00:24:10.980Z,7.61
2019-02-09T00:25:10.915Z,7.52
2019-02-09T00:26:10.910Z,7.67
2019-02-09T00:27:10.903Z,7.50
2019-02-09T00:28:10.894Z,7.68
2019-02-09T00:29:10.901Z,7.50
2019-02-09T00:30:10.878Z,7.50
2019-02-09T00:31:10.865Z,7.55
2019-02-09T00:32:10.846Z,7.57
2019-02-09T00:33:10.861Z,7.53
2019-02-09T00:34:10.841Z,7.49
2019-02-09T00:35:10.815Z,7.64
2019-02-09T00:36:10.803Z,7.53
2019-02-09T00:37:10.788Z,7.50
2019-02-09T00:38:10.787Z,7.46
2019-02-09T00:39:10.795Z,7.50
2019-02-09T00:40:10.753Z,7.55
2019-02-09T00:41:10.773Z,7.57
2019-02-09T00:42:10.737Z,7.55
2019-02-09T00:43:10.737Z,7.50
2019-02-09T00:44:10.729Z,7.50
2019-02-09T00:45:10.715Z,7.50
2019-02-09T00:46:10.709Z,7.50
2019-02-09T00:47:10.679Z,7.53
2019-02-09T00:48:10.664Z,7.48
2019-02-09T00:49:10.650Z,7.50
2019-02-09T00:50:10.680Z,7.39
2019-02-09T00:51:10.637Z,7.37
2019-02-09T00:52:10.618Z,7.40
2019-02-09T00:53:10.611Z,7.37
2019-02-09T00:54:10.595Z,7.35
2019-02-09T00:55:10.599Z,7.39
2019-02-09T00:56:10.579Z,7.35
2019-02-09T00:57:10.563Z,7.31
2019-02-09T00:58:10.556Z,7.24
2019-02-09T00:59:10.546Z,7.25
2019-02-09T01:00:10.702Z,7.31
2019-02-09T01:01:10.524Z,7.28
2019-02-09T01:02:10.515Z,7.24
2019-02-09T01:03:10.505Z,7.30
2019-02-09T01:04:10.491Z,7.27
2019-02-09T01:05:10.504Z,7.31
2019-02-09T01:06:10.462Z,7.31
2019-02-09T01:07:10.450Z,7.25
2019-02-09T01:08:10.449Z,7.21
2019-02-09T01:09:10.441Z,7.28
2019-02-09T01:10:10.440Z,7.27
2019-02-09T01:11:10.407Z,7.25
2019-02-09T01:12:10.409Z,7.24
2019-02-09T01:13:10.386Z,7.25
2019-02-09T01:14:10.391Z,7.25
2019-02-09T01:15:10.380Z,7.20
2019-02-09T01:16:10.373Z,7.21
2019-02-09T01:17:10.340Z,7.21
2019-02-09T01:18:10.331Z,7.23
2019-02-09T01:19:10.327Z,7.21
2019-02-09T01:20:10.333Z,7.23
2019-02-09T01:21:10.328Z,7.17
2019-02-09T01:22:10.286Z,7.09
2019-02-09T01:23:10.291Z,7.17
2019-02-09T01:24:10.263Z,7.16
2019-02-09T01:25:10.251Z,7.17
2019-02-09T01:26:10.258Z,7.17
2019-02-09T01:27:10.231Z,7.10
2019-02-09T01:28:10.223Z,7.09
2019-02-09T01:29:10.217Z,7.20
2019-02-09T01:30:10.256Z,7.15
2019-02-09T01:31:10.209Z,7.09
2019-02-09T01:32:10.175Z,7.06
2019-02-09T01:33:10.176Z,7.02
2019-02-09T01:34:10.151Z,7.06
2019-02-09T01:35:10.150Z,7.02
2019-02-09T01:36:10.156Z,7.02
2019-02-09T01:37:10.119Z,6.92
2019-02-09T01:38:10.147Z,6.85
2019-02-09T01:39:10.098Z,6.79
2019-02-09T01:40:10.094Z,6.87
2019-02-09T01:41:10.093Z,6.76
2019-02-09T01:42:10.073Z,6.67
2019-02-09T01:43:10.062Z,6.67
2019-02-09T01:44:10.042Z,6.70
2019-02-09T01:45:10.041Z,6.67
2019-02-09T01:46:10.049Z,6.51
2019-02-09T01:47:10.005Z,6.49
2019-02-09T01:48:10.000Z,6.54
2019-02-09T01:49:09.985Z,6.49
2019-02-09T01:50:09.973Z,6.44
2019-02-09T01:51:09.972Z,6.43
2019-02-09T01:52:09.984Z,6.37
2019-02-09T01:53:09.962Z,6.37
2019-02-09T01:54:09.936Z,6.31
2019-02-09T01:55:09.919Z,6.17
2019-02-09T01:56:09.930Z,6.21
2019-02-09T01:57:09.915Z,6.04
2019-02-09T01:58:09.899Z,6.15
2019-02-09T01:59:09.886Z,6.06
2019-02-09T02:00:10.855Z,6.14
2019-02-09T02:01:09.885Z,6.06
2019-02-09T02:02:09.893Z,6.06
2019-02-09T02:03:09.839Z,6.04
2019-02-09T02:04:09.825Z,5.94
2019-02-09T02:05:09.810Z,6.08
2019-02-09T02:06:09.821Z,5.94
2019-02-09T02:07:09.819Z,5.83
2019-02-09T02:08:09.776Z,5.81
2019-02-09T02:09:09.765Z,5.94
2019-02-09T02:10:09.753Z,5.83
2019-02-09T02:11:09.756Z,5.90
2019-02-09T02:12:09.771Z,5.89
2019-02-09T02:13:09.724Z,5.85
2019-02-09T02:14:09.716Z,5.74
2019-02-09T02:15:09.700Z,5.81
2019-02-09T02:16:09.696Z,5.76
2019-02-09T02:17:09.683Z,5.76
2019-02-09T02:18:09.693Z,5.71
2019-02-09T02:19:09.663Z,5.75
2019-02-09T02:20:09.656Z,5.78
2019-02-09T02:21:09.636Z,5.75
2019-02-09T02:22:09.670Z,5.76
2019-02-09T02:23:09.619Z,5.76
2019-02-09T02:24:09.614Z,5.79
2019-02-09T02:25:09.608Z,5.76
2019-02-09T02:26:09.588Z,5.72
2019-02-09T02:27:09.593Z,5.63
2019-02-09T02:28:09.577Z,5.68
2019-02-09T02:29:09.554Z,5.72
2019-02-09T02:30:09.558Z,5.67
2019-02-09T02:31:09.536Z,5.65
2019-02-09T02:32:09.525Z,5.68
2019-02-09T02:33:09.532Z,5.65
2019-02-09T02:34:09.492Z,5.67
2019-02-09T02:35:09.482Z,5.60
2019-02-09T02:36:09.475Z,5.65
2019-02-09T02:37:09.459Z,5.65
2019-02-09T02:38:09.505Z,5.65
2019-02-09T02:39:09.445Z,5.68
2019-02-09T02:40:09.438Z,5.72
2019-02-09T02:41:09.426Z,5.63
2019-02-09T02:42:09.434Z,5.65
2019-02-09T02:43:09.423Z,5.57
2019-02-09T02:44:09.401Z,5.61
2019-02-09T02:45:09.381Z,5.64
2019-02-09T02:46:09.360Z,5.63
2019-02-09T02:47:09.373Z,5.71
2019-02-09T02:48:09.381Z,5.63
2019-02-09T02:49:09.336Z,5.60
2019-02-09T02:50:09.337Z,5.65
2019-02-09T02:51:09.309Z,5.63
2019-02-09T02:52:09.299Z,5.60
2019-02-09T02:53:09.305Z,5.63
2019-02-09T02:54:09.289Z,5.71
2019-02-09T02:55:09.265Z,5.61
2019-02-09T02:56:09.254Z,5.63
2019-02-09T02:57:09.242Z,5.72
2019-02-09T02:58:09.249Z,5.63
2019-02-09T02:59:09.241Z,5.68
2019-02-09T03:00:09.216Z,5.67
2019-02-09T03:01:09.206Z,5.68
2019-02-09T03:02:09.188Z,5.74
2019-02-09T03:03:09.181Z,5.72
2019-02-09T03:04:09.183Z,5.78
2019-02-09T03:05:09.157Z,5.76
2019-02-09T03:06:09.151Z,5.78
2019-02-09T03:07:09.136Z,5.79
2019-02-09T03:08:09.121Z,5.67
2019-02-09T03:09:09.132Z,5.83
2019-02-09T03:10:09.110Z,5.81
2019-02-09T03:11:09.094Z,5.79
2019-02-09T03:12:09.080Z,5.82
2019-02-09T03:13:09.069Z,5.76
2019-02-09T03:14:09.083Z,5.78
2019-02-09T03:15:09.045Z,5.79
2019-02-09T03:16:09.034Z,5.85
2019-02-09T03:17:09.020Z,5.86
2019-02-09T03:18:09.012Z,5.85
2019-02-09T03:19:09.037Z,5.83
2019-02-09T03:20:09.015Z,5.81
2019-02-09T03:21:08.978Z,5.78
2019-02-09T03:22:08.966Z,5.79
2019-02-09T03:23:08.957Z,5.83
2019-02-09T03:24:08.945Z,5.86
2019-02-09T03:25:08.971Z,5.86
2019-02-09T03:26:08.925Z,5.96
2019-02-09T03:27:08.918Z,5.94
2019-02-09T03:28:08.916Z,5.90
2019-02-09T03:29:08.907Z,5.91
2019-02-09T03:30:08.890Z,5.93
2019-02-09T03:31:08.888Z,5.91
2019-02-09T03:32:10.985Z,5.89
2019-02-09T03:33:08.888Z,5.89
2019-02-09T03:34:08.842Z,5.86
2019-02-09T03:35:08.857Z,5.89
2019-02-09T03:36:08.822Z,5.86
2019-02-09T03:37:08.805Z,5.96
2019-02-09T03:38:08.801Z,5.86
2019-02-09T03:39:08.786Z,5.85
2019-02-09T03:40:08.813Z,5.85
2019-02-09T03:41:08.796Z,5.93
2019-02-09T03:42:08.763Z,5.93
2019-02-09T03:43:08.754Z,5.94
2019-02-09T03:44:08.730Z,5.93
2019-02-09T03:45:08.736Z,5.96
2019-02-09T03:46:08.733Z,6.01
2019-02-09T03:47:08.698Z,6.01
2019-02-09T03:48:08.693Z,6.01
2019-02-09T03:49:08.674Z,6.01
2019-02-09T03:50:08.741Z,5.99
2019-02-09T03:51:08.675Z,6.00
2019-02-09T03:52:08.649Z,6.01
2019-02-09T03:53:08.638Z,6.08
2019-02-09T03:54:08.627Z,6.08
2019-02-09T03:55:08.610Z,6.04
2019-02-09T03:56:08.614Z,6.18
2019-02-09T03:57:08.590Z,6.15
2019-02-09T03:58:08.593Z,6.17
2019-02-09T03:59:08.568Z,6.18
2019-02-09T04:00:08.556Z,6.14
2019-02-09T04:01:08.577Z,6.21
2019-02-09T04:02:08.532Z,6.18
2019-02-09T04:03:08.524Z,6.18
2019-02-09T04:04:08.514Z,6.15
2019-02-09T04:05:08.502Z,6.12
2019-02-09T04:06:08.538Z,6.31
2019-02-09T04:07:08.493Z,6.33
2019-02-09T04:08:08.470Z,6.21
2019-02-09T04:09:08.473Z,6.28
2019-02-09T04:10:08.460Z,6.18
2019-02-09T04:11:08.468Z,6.22
2019-02-09T04:12:08.440Z,6.21
2019-02-09T04:13:08.425Z,6.22
2019-02-09T04:14:08.406Z,6.19
2019-02-09T04:15:08.387Z,6.14
2019-02-09T04:16:08.378Z,6.15
2019-02-09T04:17:08.406Z,6.17
2019-02-09T04:18:08.355Z,6.17
2019-02-09T04:19:08.351Z,6.22
2019-02-09T04:20:08.341Z,6.12
2019-02-09T04:21:08.359Z,6.17
2019-02-09T04:22:08.346Z,6.14
2019-02-09T04:23:08.311Z,6.15
2019-02-09T04:24:08.295Z,6.08
2019-02-09T04:25:08.286Z,6.06
2019-02-09T04:26:08.271Z,6.08
2019-02-09T04:27:08.279Z,6.15
2019-02-09T04:28:08.270Z,6.09
2019-02-09T04:29:08.251Z,6.04
2019-02-09T04:30:10.377Z,6.03
2019-02-09T04:31:08.220Z,6.14
2019-02-09T04:32:08.229Z,6.09
2019-02-09T04:33:08.231Z,6.18
2019-02-09T04:34:08.185Z,6.12
2019-02-09T04:35:08.172Z,6.11
2019-02-09T04:36:08.160Z,6.17
2019-02-09T04:37:08.149Z,6.18
2019-02-09T04:38:08.165Z,6.22
2019-02-09T04:39:08.129Z,6.18
2019-02-09T04:40:08.127Z,6.21
2019-02-09T04:41:08.107Z,6.28
2019-02-09T04:42:08.093Z,6.22
2019-02-09T04:43:08.124Z,6.18
2019-02-09T04:44:08.075Z,6.19
2019-02-09T04:45:08.071Z,6.15
2019-02-09T04:46:08.049Z,6.19
2019-02-09T04:47:08.054Z,6.21
2019-02-09T04:48:08.053Z,6.17
2019-02-09T04:49:08.040Z,6.21
2019-02-09T04:50:08.025Z,6.19
2019-02-09T04:51:08.021Z,6.25
2019-02-09T04:52:07.988Z,6.21
2019-02-09T04:53:08.009Z,6.21
2019-02-09T04:54:07.961Z,6.27
2019-02-09T04:55:07.952Z,6.18
2019-02-09T04:56:07.969Z,6.15
2019-02-09T04:57:07.932Z,6.34
2019-02-09T04:58:07.926Z,6.21
2019-02-09T04:59:07.931Z,6.21
2019-02-09T05:00:07.895Z,6.30
2019-02-09T05:01:13.769Z,6.31
2019-02-09T05:02:08.874Z,6.31
2019-02-09T05:03:07.898Z,6.28
2019-02-09T05:04:07.847Z,6.31
2019-02-09T05:05:07.861Z,6.30
2019-02-09T05:06:07.826Z,6.40
2019-02-09T05:07:07.814Z,6.37
2019-02-09T05:08:07.820Z,6.40
2019-02-09T05:09:07.812Z,6.36
2019-02-09T05:10:07.789Z,6.43
2019-02-09T05:11:07.778Z,6.38
2019-02-09T05:12:07.761Z,6.40
2019-02-09T05:13:07.780Z,6.34
2019-02-09T05:14:07.754Z,6.38
2019-02-09T05:15:07.731Z,6.41
2019-02-09T05:16:07.726Z,6.41
2019-02-09T05:17:07.706Z,6.59
2019-02-09T05:18:07.693Z,6.56
2019-02-09T05:19:07.702Z,6.55
2019-02-09T05:20:07.685Z,6.56
2019-02-09T05:21:07.672Z,6.70
2019-02-09T05:22:07.667Z,6.67
2019-02-09T05:23:07.643Z,6.66
2019-02-09T05:24:07.648Z,6.70
2019-02-09T05:25:07.618Z,6.66
2019-02-09T05:26:07.611Z,6.67
2019-02-09T05:27:07.599Z,6.62
2019-02-09T05:28:07.586Z,6.73
2019-02-09T05:29:07.574Z,6.69
2019-02-09T05:30:07.583Z,6.64
2019-02-09T05:31:07.559Z,6.67
2019-02-09T05:32:07.543Z,6.71
2019-02-09T05:33:07.531Z,6.71
2019-02-09T05:34:07.527Z,6.69
2019-02-09T05:35:07.524Z,6.69
2019-02-09T05:36:07.498Z,6.70
2019-02-09T05:37:07.489Z,6.67
2019-02-09T05:38:07.478Z,6.67
2019-02-09T05:39:07.471Z,6.67
2019-02-09T05:40:07.477Z,6.67
2019-02-09T05:41:07.449Z,6.69
2019-02-09T05:42:07.432Z,6.66
2019-02-09T05:43:07.420Z,6.71
2019-02-09T05:44:07.410Z,6.70
2019-02-09T05:45:07.420Z,6.77
2019-02-09T05:46:07.396Z,6.70
2019-02-09T05:47:07.391Z,6.76
2019-02-09T05:48:07.365Z,6.70
2019-02-09T05:49:07.360Z,6.79
2019-02-09T05:50:07.364Z,6.71
2019-02-09T05:51:07.342Z,6.66
2019-02-09T05:52:07.331Z,6.74
2019-02-09T05:53:07.317Z,6.76
2019-02-09T05:54:07.308Z,6.77
2019-02-09T05:55:07.321Z,6.88
2019-02-09T05:56:07.278Z,6.81
2019-02-09T05:57:07.273Z,6.94
2019-02-09T05:58:07.257Z,6.88
2019-02-09T05:59:07.521Z,6.85
2019-02-09T06:00:07.235Z,6.87
2019-02-09T06:01:07.242Z,6.87
2019-02-09T06:02:07.213Z,6.85
2019-02-09T06:03:07.203Z,6.84
2019-02-09T06:04:07.191Z,6.85
2019-02-09T06:05:07.177Z,6.87
2019-02-09T06:06:07.183Z,6.85
2019-02-09T06:07:07.158Z,6.88
2019-02-09T06:08:07.144Z,6.91
2019-02-09T06:09:07.131Z,6.87
2019-02-09T06:10:07.123Z,6.87
2019-02-09T06:11:07.140Z,6.87
2019-02-09T06:12:07.110Z,6.87
2019-02-09T06:13:07.161Z,6.88
2019-02-09T06:14:07.135Z,6.87
2019-02-09T06:15:07.092Z,6.81
2019-02-09T06:16:07.383Z,6.81
2019-02-09T06:17:07.048Z,6.80
2019-02-09T06:18:07.037Z,6.79
2019-02-09T06:19:07.023Z,6.77
2019-02-09T06:20:07.013Z,6.74
2019-02-09T06:21:07.017Z,6.66
2019-02-09T06:22:06.990Z,6.67
2019-02-09T06:23:06.984Z,6.67
2019-02-09T06:24:06.967Z,6.73
2019-02-09T06:25:06.959Z,6.69
2019-02-09T06:26:07.003Z,6.67
2019-02-09T06:27:06.943Z,6.74
2019-02-09T06:28:06.931Z,6.71
2019-02-09T06:29:06.920Z,6.69
2019-02-09T06:30:06.908Z,6.67
2019-02-09T06:31:06.894Z,6.67
2019-02-09T06:32:06.904Z,6.67
2019-02-09T06:33:06.886Z,6.67
2019-02-09T06:34:06.872Z,6.70
2019-02-09T06:35:06.852Z,6.70
2019-02-09T06:36:06.869Z,6.67
2019-02-09T06:37:06.857Z,6.74
2019-02-09T06:38:06.830Z,6.64
2019-02-09T06:39:06.802Z,6.64
2019-02-09T06:40:06.793Z,6.59
2019-02-09T06:41:06.813Z,6.66
2019-02-09T06:42:06.770Z,6.66
2019-02-09T06:43:06.767Z,6.69
2019-02-09T06:44:06.772Z,6.62
2019-02-09T06:45:06.741Z,6.66
2019-02-09T06:46:06.738Z,6.59
2019-02-09T06:47:06.755Z,6.64
2019-02-09T06:48:06.715Z,6.64
2019-02-09T06:49:06.722Z,6.70
2019-02-09T06:50:06.682Z,6.61
2019-02-09T06:51:06.677Z,6.61
2019-02-09T06:52:06.695Z,6.71
2019-02-09T06:53:06.649Z,6.61
2019-02-09T06:54:06.649Z,6.64
2019-02-09T06:55:06.630Z,6.71
2019-02-09T06:56:06.617Z,6.62
2019-02-09T06:57:06.618Z,6.76
2019-02-09T06:58:06.614Z,6.69
2019-02-09T06:59:06.583Z,6.71
2019-02-09T07:00:06.576Z,6.66
2019-02-09T07:01:06.560Z,6.64
2019-02-09T07:02:06.558Z,6.64
2019-02-09T07:03:06.586Z,6.70
2019-02-09T07:04:06.537Z,6.70
2019-02-09T07:05:06.526Z,6.74
2019-02-09T07:06:06.535Z,6.81
2019-02-09T07:07:06.514Z,6.79
2019-02-09T07:08:06.516Z,6.76
2019-02-09T07:09:06.494Z,6.74
2019-02-09T07:10:06.464Z,6.79
2019-02-09T07:11:06.454Z,6.77
2019-02-09T07:12:06.452Z,6.71
2019-02-09T07:13:06.465Z,6.77
2019-02-09T07:14:06.454Z,6.74
2019-02-09T07:15:06.414Z,6.74
2019-02-09T07:16:06.403Z,6.79
2019-02-09T07:17:06.390Z,6.84
2019-02-09T07:18:06.396Z,6.70
2019-02-09T07:19:06.383Z,6.79
2019-02-09T07:20:06.356Z,6.89
2019-02-09T07:21:06.344Z,6.85
2019-02-09T07:22:06.335Z,6.94
2019-02-09T07:23:06.351Z,6.80
2019-02-09T07:24:06.312Z,6.98
2019-02-09T07:25:06.297Z,6.99
2019-02-09T07:26:06.289Z,6.97
2019-02-09T07:27:06.292Z,6.98
2019-02-09T07:28:06.271Z,6.97
2019-02-09T07:29:06.281Z,7.06
2019-02-09T07:30:06.244Z,7.06
2019-02-09T07:31:06.240Z,7.10
2019-02-09T07:32:06.225Z,7.07
2019-02-09T07:33:06.227Z,7.09
2019-02-09T07:34:06.223Z,7.43
2019-02-09T07:35:06.188Z,7.75
2019-02-09T07:36:06.191Z,7.98
2019-02-09T07:37:06.179Z,8.22
2019-02-09T07:38:06.162Z,8.33
2019-02-09T07:39:06.164Z,8.43
2019-02-09T07:40:06.164Z,8.59
2019-02-09T07:41:06.127Z,8.61
2019-02-09T07:42:06.111Z,8.61
2019-02-09T07:43:06.108Z,8.71
2019-02-09T07:44:06.161Z,8.71
2019-02-09T07:45:06.103Z,8.86
2019-02-09T07:46:06.074Z,8.73
2019-02-09T07:47:06.061Z,8.47
2019-02-09T07:48:06.047Z,8.22
2019-02-09T07:49:06.034Z,8.00
2019-02-09T07:50:06.072Z,8.00
2019-02-09T07:51:06.021Z,8.01
2019-02-09T07:52:06.012Z,8.00
2019-02-09T07:53:05.997Z,8.01
2019-02-09T07:54:06.011Z,8.01
2019-02-09T07:55:05.968Z,7.87
2019-02-09T07:56:05.957Z,7.90
2019-02-09T07:57:05.943Z,7.85
2019-02-09T07:58:05.953Z,7.85
2019-02-09T07:59:05.932Z,7.97
2019-02-09T08:00:05.935Z,8.05
2019-02-09T08:01:06.023Z,7.95
2019-02-09T08:02:05.892Z,8.16
2019-02-09T08:03:05.877Z,8.16
2019-02-09T08:04:05.881Z,8.10
2019-02-09T08:05:05.884Z,8.01
2019-02-09T08:06:05.846Z,8.05
2019-02-09T08:07:05.836Z,8.11
2019-02-09T08:08:05.839Z,8.12
2019-02-09T08:09:05.813Z,8.10
2019-02-09T08:10:05.818Z,8.29
2019-02-09T08:11:09.258Z,8.47
2019-02-09T08:12:05.780Z,8.59
2019-02-09T08:13:05.771Z,8.71
2019-02-09T08:14:05.766Z,8.83
2019-02-09T08:15:05.763Z,8.83
2019-02-09T08:16:05.758Z,8.81
2019-02-09T08:17:05.726Z,8.87
2019-02-09T08:18:05.736Z,9.04
2019-02-09T08:19:05.703Z,8.91
2019-02-09T08:20:05.697Z,8.91
2019-02-09T08:21:05.712Z,8.91
2019-02-09T08:22:05.764Z,8.74
2019-02-09T08:23:05.662Z,8.74
2019-02-09T08:24:07.287Z,8.83
2019-02-09T08:25:05.636Z,8.71
2019-02-09T08:26:05.644Z,8.81
2019-02-09T08:27:05.616Z,8.79
2019-02-09T08:28:05.621Z,8.96
2019-02-09T08:29:05.611Z,8.96
2019-02-09T08:30:05.582Z,9.01
2019-02-09T08:31:05.591Z,8.98
2019-02-09T08:32:12.612Z,8.86
2019-02-09T08:33:06.557Z,8.79
2019-02-09T08:34:05.555Z,8.74
2019-02-09T08:35:05.532Z,8.73
2019-02-09T08:36:05.548Z,8.59
2019-02-09T08:37:05.510Z,8.56
2019-02-09T08:38:05.502Z,8.52
2019-02-09T08:39:05.491Z,8.47
2019-02-09T08:40:05.475Z,8.33
2019-02-09T08:41:05.506Z,8.34
2019-02-09T08:42:05.465Z,8.28
2019-02-09T08:43:05.448Z,8.34
2019-02-09T08:44:05.440Z,8.34
2019-02-09T08:45:05.417Z,8.22
2019-02-09T08:46:05.447Z,8.18
2019-02-09T08:47:05.404Z,8.18
2019-02-09T08:48:05.387Z,8.23
2019-02-09T08:49:05.398Z,8.22
2019-02-09T08:50:05.383Z,8.18
2019-02-09T08:51:05.360Z,8.15
2019-02-09T08:52:05.390Z,8.15
2019-02-09T08:53:05.420Z,8.11
2019-02-09T08:54:05.333Z,8.15
2019-02-09T08:55:05.323Z,8.16
2019-02-09T08:56:05.304Z,8.11
2019-02-09T08:57:05.325Z,8.12
2019-02-09T08:58:05.276Z,8.12
2019-02-09T08:59:05.290Z,8.10
2019-02-09T09:00:05.695Z,8.15
2019-02-09T09:01:05.251Z,8.08
2019-02-09T09:02:05.264Z,8.07
2019-02-09T09:03:05.229Z,8.10
2019-02-09T09:04:05.225Z,8.10
2019-02-09T09:05:09.837Z,8.12
2019-02-09T09:06:05.191Z,8.11
2019-02-09T09:07:05.224Z,8.11
2019-02-09T09:08:05.180Z,8.10
2019-02-09T09:09:05.166Z,8.08
2019-02-09T09:10:05.149Z,8.07
2019-02-09T09:11:05.172Z,8.15
2019-02-09T09:12:05.156Z,8.18
2019-02-09T09:13:05.167Z,8.12
2019-02-09T09:14:05.112Z,8.12
2019-02-09T09:15:05.099Z,8.10
2019-02-09T09:16:05.083Z,8.10
2019-02-09T09:17:05.089Z,8.19
2019-02-09T09:18:05.080Z,8.15
2019-02-09T09:19:05.050Z,8.15
2019-02-09T09:20:05.041Z,8.23
2019-02-09T09:21:05.026Z,8.23
2019-02-09T09:22:05.025Z,8.25
2019-02-09T09:23:05.042Z,8.26
2019-02-09T09:24:05.007Z,8.38
2019-02-09T09:25:04.977Z,8.36
2019-02-09T09:26:04.970Z,8.44
2019-02-09T09:27:04.967Z,8.48
2019-02-09T09:28:04.963Z,8.55
2019-02-09T09:29:04.943Z,8.59
2019-02-09T09:30:04.939Z,8.55
2019-02-09T09:31:04.928Z,8.53
2019-02-09T09:32:04.906Z,8.65
2019-02-09T09:33:04.926Z,8.65
2019-02-09T09:34:04.903Z,8.55
2019-02-09T09:35:04.888Z,8.62
2019-02-09T09:36:04.860Z,8.68
2019-02-09T09:37:04.863Z,8.70
2019-02-09T09:38:04.850Z,8.66
2019-02-09T09:39:04.850Z,8.66
2019-02-09T09:40:04.821Z,8.71
2019-02-09T09:41:04.831Z,8.70
2019-02-09T09:42:04.802Z,8.74
2019-02-09T09:43:04.790Z,8.79
2019-02-09T09:44:04.811Z,8.80
2019-02-09T09:45:04.782Z,8.80
2019-02-09T09:46:04.758Z,8.79
2019-02-09T09:47:04.739Z,8.79
2019-02-09T09:48:04.739Z,8.81
2019-02-09T09:49:04.743Z,8.87
2019-02-09T09:50:04.705Z,8.94
2019-02-09T09:51:04.693Z,8.87
2019-02-09T09:52:04.685Z,8.94
2019-02-09T09:53:04.683Z,8.87
2019-02-09T09:54:04.703Z,8.87
2019-02-09T09:55:04.658Z,8.94
2019-02-09T09:56:04.641Z,8.98
2019-02-09T09:57:04.633Z,9.04
2019-02-09T09:58:04.624Z,9.04
2019-02-09T09:59:04.617Z,9.08
2019-02-09T10:00:04.648Z,9.08
2019-02-09T10:01:04.625Z,9.08
2019-02-09T10:02:04.582Z,9.14
2019-02-09T10:03:04.572Z,9.13
2019-02-09T10:04:04.639Z,9.11
2019-02-09T10:05:04.572Z,9.15
2019-02-09T10:06:04.552Z,9.31
2019-02-09T10:07:04.537Z,9.35
2019-02-09T10:08:04.517Z,9.36
2019-02-09T10:09:04.514Z,9.40
2019-02-09T10:10:04.507Z,9.53
2019-02-09T10:11:04.479Z,9.64
2019-02-09T10:12:04.468Z,9.66
2019-02-09T10:13:04.459Z,9.68
2019-02-09T10:14:08.991Z,9.74
2019-02-09T10:15:04.459Z,9.78
2019-02-09T10:16:04.441Z,9.99
2019-02-09T10:17:04.424Z,10.04
2019-02-09T10:18:04.407Z,10.07
2019-02-09T10:19:04.399Z,10.05
2019-02-09T10:20:04.411Z,10.07
2019-02-09T10:21:04.370Z,9.99
2019-02-09T10:22:04.365Z,10.14
2019-02-09T10:23:04.374Z,10.15
2019-02-09T10:24:04.339Z,10.20
2019-02-09T10:25:04.369Z,10.17
2019-02-09T10:26:04.346Z,10.08
2019-02-09T10:27:04.315Z,9.97
2019-02-09T10:28:04.322Z,9.99
2019-02-09T10:29:04.294Z,10.11
2019-02-09T10:30:04.292Z,10.11
2019-02-09T10:31:04.272Z,10.15
2019-02-09T10:32:04.248Z,10.17
2019-02-09T10:33:04.254Z,10.32
2019-02-09T10:34:04.234Z,10.26
2019-02-09T10:35:04.286Z,10.25
2019-02-09T10:36:04.218Z,10.30
2019-02-09T10:37:04.200Z,10.26
2019-02-09T10:38:04.184Z,10.26
2019-02-09T10:39:04.181Z,10.18
2019-02-09T10:40:04.172Z,10.08
2019-02-09T10:41:04.210Z,10.04
2019-02-09T10:42:04.141Z,9.93
2019-02-09T10:43:04.134Z,9.91
2019-02-09T10:44:04.124Z,9.81
2019-02-09T10:45:04.118Z,9.84
2019-02-09T10:46:04.127Z,9.76
2019-02-09T10:47:04.085Z,9.91
2019-02-09T10:48:04.071Z,9.86
2019-02-09T10:49:04.067Z,9.87
2019-02-09T10:50:04.058Z,10.01
2019-02-09T10:51:04.058Z,9.91
2019-02-09T10:52:04.040Z,9.96
2019-02-09T10:53:04.034Z,10.02
2019-02-09T10:54:04.006Z,10.14
2019-02-09T10:55:04.003Z,10.12
2019-02-09T10:56:04.003Z,10.17
2019-02-09T10:57:03.982Z,10.07
2019-02-09T10:58:03.973Z,10.08
2019-02-09T10:59:04.011Z,9.99
2019-02-09T11:00:03.947Z,10.01
2019-02-09T11:01:04.020Z,9.96
2019-02-09T11:02:03.931Z,9.91
2019-02-09T11:03:03.940Z,9.94
2019-02-09T11:04:03.927Z,9.81
2019-02-09T11:05:03.889Z,9.87
2019-02-09T11:06:03.920Z,9.91
2019-02-09T11:07:03.881Z,9.83
2019-02-09T11:08:03.872Z,9.76
2019-02-09T11:09:03.840Z,9.81
2019-02-09T11:10:03.835Z,9.81
2019-02-09T11:11:03.852Z,9.87
2019-02-09T11:12:03.828Z,9.86
2019-02-09T11:13:03.820Z,9.87
2019-02-09T11:14:03.831Z,9.78
2019-02-09T11:15:03.802Z,9.86
2019-02-09T11:16:03.776Z,9.86
2019-02-09T11:17:03.789Z,9.83
2019-02-09T11:18:03.752Z,9.81
2019-02-09T11:19:03.744Z,9.89
2019-02-09T11:20:03.734Z,9.81
2019-02-09T11:21:03.717Z,9.89
2019-02-09T11:22:03.717Z,9.94
2019-02-09T11:23:03.699Z,9.99
2019-02-09T11:24:03.678Z,10.01
2019-02-09T11:25:03.678Z,10.04
2019-02-09T11:26:03.661Z,10.01
2019-02-09T11:27:03.668Z,9.99
2019-02-09T11:28:03.630Z,9.99
2019-02-09T11:29:03.624Z,9.96
2019-02-09T11:30:03.611Z,10.01
2019-02-09T11:31:03.604Z,10.01
2019-02-09T11:32:03.620Z,10.02
2019-02-09T11:33:03.590Z,10.05
2019-02-09T11:34:03.566Z,9.97
2019-02-09T11:35:03.556Z,10.01
2019-02-09T11:36:03.538Z,10.02
2019-02-09T11:37:03.542Z,9.97
2019-02-09T11:38:03.551Z,10.02
2019-02-09T11:39:03.506Z,9.99
2019-02-09T11:40:03.501Z,10.01
2019-02-09T11:41:03.483Z,10.12
2019-02-09T11:42:03.472Z,10.09
2019-02-09T11:43:03.488Z,10.14
2019-02-09T11:44:03.456Z,10.20
2019-02-09T11:45:03.439Z,10.15
2019-02-09T11:46:03.431Z,10.22
2019-02-09T11:47:03.426Z,10.18
2019-02-09T11:48:03.416Z,10.12
2019-02-09T11:49:03.431Z,10.22
2019-02-09T11:50:03.397Z,10.25
2019-02-09T11:51:03.375Z,10.25
2019-02-09T11:52:03.371Z,10.25
2019-02-09T11:53:03.361Z,10.23
2019-02-09T11:54:04.006Z,10.27
2019-02-09T11:55:03.334Z,10.25
2019-02-09T11:56:03.325Z,10.27
2019-02-09T11:57:03.308Z,10.32
2019-02-09T11:58:03.299Z,10.34
2019-02-09T11:59:03.343Z,10.32
2019-02-09T12:00:03.274Z,10.33
2019-02-09T12:01:03.262Z,10.34
2019-02-09T12:02:03.252Z,10.36
2019-02-09T12:03:13.972Z,10.40
2019-02-09T12:04:04.243Z,10.38
2019-02-09T12:05:03.227Z,10.34
2019-02-09T12:06:03.217Z,10.32
2019-02-09T12:07:03.196Z,10.32
2019-02-09T12:08:03.182Z,10.41
2019-02-09T12:09:03.205Z,10.36
2019-02-09T12:10:03.172Z,10.34
2019-02-09T12:11:03.169Z,10.41
2019-02-09T12:12:03.144Z,10.47
2019-02-09T12:13:03.138Z,10.53
2019-02-09T12:14:03.128Z,10.44
2019-02-09T12:15:03.119Z,10.42
2019-02-09T12:16:03.105Z,10.41
2019-02-09T12:17:03.084Z,10.48
2019-02-09T12:18:03.081Z,10.41
2019-02-09T12:19:03.088Z,10.40
2019-02-09T12:20:03.075Z,10.44
2019-02-09T12:21:03.038Z,10.45
2019-02-09T12:22:03.037Z,10.47
2019-02-09T12:23:03.014Z,10.38
2019-02-09T12:24:03.009Z,10.33
2019-02-09T12:25:03.029Z,10.30
2019-02-09T12:26:03.004Z,10.32
2019-02-09T12:27:02.972Z,10.30
2019-02-09T12:28:02.969Z,10.32
2019-02-09T12:29:02.981Z,10.29
2019-02-09T12:30:03.005Z,10.20
2019-02-09T12:31:02.935Z,10.29
2019-02-09T12:32:02.929Z,10.30
2019-02-09T12:33:02.915Z,10.38
2019-02-09T12:34:02.890Z,10.38
2019-02-09T12:35:02.900Z,10.38
2019-02-09T12:36:02.876Z,10.27
2019-02-09T12:37:02.860Z,10.38
2019-02-09T12:38:02.849Z,10.27
2019-02-09T12:39:02.869Z,10.36
2019-02-09T12:40:02.855Z,10.23
2019-02-09T12:41:02.812Z,10.26
2019-02-09T12:42:02.802Z,10.23
2019-02-09T12:43:02.790Z,10.09
2019-02-09T12:44:02.786Z,10.18
2019-02-09T12:45:02.797Z,10.14
2019-02-09T12:46:02.791Z,10.07
2019-02-09T12:47:02.746Z,10.09
2019-02-09T12:48:02.734Z,10.11
2019-02-09T12:49:02.735Z,10.05
2019-02-09T12:50:02.720Z,10.12
2019-02-09T12:51:02.720Z,10.14
2019-02-09T12:52:02.700Z,10.15
2019-02-09T12:53:02.684Z,10.11
2019-02-09T12:54:02.667Z,10.05
2019-02-09T12:55:02.656Z,10.15
2019-02-09T12:56:02.673Z,10.11
2019-02-09T12:57:02.634Z,10.22
2019-02-09T12:58:02.623Z,10.14
2019-02-09T12:59:02.609Z,10.15
2019-02-09T13:00:02.601Z,10.25
2019-02-09T13:01:02.615Z,10.14
2019-02-09T13:02:02.583Z,10.22
2019-02-09T13:03:02.572Z,10.09
2019-02-09T13:04:02.591Z,10.15
2019-02-09T13:05:02.549Z,10.18
2019-02-09T13:06:02.553Z,10.17
2019-02-09T13:07:02.529Z,10.18
2019-02-09T13:08:02.535Z,10.25
2019-02-09T13:09:02.503Z,10.25
2019-02-09T13:10:02.488Z,10.25
2019-02-09T13:11:02.511Z,10.25
2019-02-09T13:12:02.481Z,10.17
2019-02-09T13:13:02.454Z,10.14